Time;durP1;ratioP1;P1;durP2;ratioP2;P2;SDS_P1;SDS_P2;PMS_P1;PMS_P2;Temp;Humidity;BMP_temperature;BMP_pressure;BME280_temperature;BME280_humidity;BME280_pressure;Samples;Min_cycle;Max_cycle;Signal;HPM_P1;HPM_P2
2021/04/24 00:02:03;;;;;;;2.97;1.80;;;7.50;52.70;;;;;;5117380;27;20256;-66
2021/04/24 00:04:30;;;;;;;3.27;1.87;;;7.40;52.80;;;;;;5127014;27;20560;-67
2021/04/24 00:06:57;;;;;;;3.13;2.03;;;7.40;52.90;;;;;;5123598;27;20594;-66
2021/04/24 00:09:23;;;;;;;4.70;2.00;;;7.40;53.10;;;;;;5125700;27;20234;-66
2021/04/24 00:11:50;;;;;;;2.70;1.67;;;7.30;53.20;;;;;;5126390;27;20200;-66
2021/04/24 00:14:17;;;;;;;3.33;1.83;;;7.30;53.30;;;;;;5115623;28;20225;-67
2021/04/24 00:16:44;;;;;;;7.23;2.10;;;7.30;53.60;;;;;;5123781;28;20214;-67
2021/04/24 00:19:11;;;;;;;4.60;2.33;;;7.20;53.80;;;;;;5128599;27;20211;-68
2021/04/24 00:21:38;;;;;;;4.73;2.30;;;7.20;53.80;;;;;;5106311;28;20200;-67
2021/04/24 00:24:06;;;;;;;4.00;2.43;;;7.20;54.00;;;;;;5106356;28;20593;-67
2021/04/24 00:26:32;;;;;;;5.43;2.47;;;7.20;54.10;;;;;;5102994;28;20220;-67
2021/04/24 00:28:59;;;;;;;4.10;1.83;;;7.20;54.20;;;;;;5102149;28;20192;-67
2021/04/24 00:31:26;;;;;;;2.97;2.20;;;7.20;54.40;;;;;;5108729;28;20253;-67
2021/04/24 00:33:54;;;;;;;3.73;2.07;;;7.10;54.60;;;;;;5111768;28;20671;-67
2021/04/24 00:36:20;;;;;;;5.37;2.53;;;7.00;54.80;;;;;;5110413;28;20252;-67
2021/04/24 00:38:47;;;;;;;2.83;1.87;;;7.00;55.00;;;;;;5113748;27;20208;-67
2021/04/24 00:41:14;;;;;;;5.03;2.40;;;7.00;55.10;;;;;;5111340;28;20204;-67
2021/04/24 00:43:41;;;;;;;4.77;2.40;;;6.90;55.30;;;;;;5109215;28;20192;-67
2021/04/24 00:46:11;;;;;;;4.23;2.10;;;6.90;55.50;;;;;;5110758;28;20202;-67
2021/04/24 00:48:38;;;;;;;4.83;2.30;;;6.90;55.60;;;;;;5110560;27;20291;-67
2021/04/24 00:51:07;;;;;;;2.93;2.00;;;6.90;56.00;;;;;;5112415;27;20536;-66
2021/04/24 00:53:35;;;;;;;4.50;1.90;;;6.80;56.10;;;;;;5112107;27;20195;-67
2021/04/24 00:56:01;;;;;;;3.53;1.90;;;6.80;56.40;;;;;;5112329;27;20257;-67
2021/04/24 00:58:28;;;;;;;3.87;1.80;;;6.80;56.60;;;;;;5114035;27;20230;-67
2021/04/24 01:00:55;;;;;;;2.37;1.83;;;6.70;56.80;;;;;;5110271;27;20244;-67
2021/04/24 01:03:22;;;;;;;2.83;1.23;;;6.70;57.10;;;;;;5117626;27;20203;-67
2021/04/24 01:05:49;;;;;;;2.03;1.27;;;6.70;57.30;;;;;;5115503;27;20192;-67
2021/04/24 01:08:17;;;;;;;3.20;1.33;;;6.70;57.60;;;;;;5117029;27;20553;-67
2021/04/24 01:10:44;;;;;;;4.73;1.40;;;6.70;57.90;;;;;;5107275;27;20234;-67
2021/04/24 01:13:13;;;;;;;1.77;1.30;;;6.70;58.10;;;;;;5121266;27;20195;-67
2021/04/24 01:15:41;;;;;;;1.07;0.93;;;6.50;58.10;;;;;;5105935;27;20200;-66
2021/04/24 01:18:08;;;;;;;2.13;1.00;;;6.60;58.20;;;;;;5115890;27;20673;-66
2021/04/24 01:20:35;;;;;;;2.83;1.33;;;6.60;58.50;;;;;;5109165;27;20188;-66
2021/04/24 01:23:05;;;;;;;1.50;1.20;;;6.60;58.60;;;;;;5113240;27;20294;-66
2021/04/24 01:25:32;;;;;;;3.00;1.30;;;6.70;59.00;;;;;;5109774;28;20231;-67
2021/04/24 01:28:00;;;;;;;2.43;1.30;;;6.70;59.20;;;;;;5111110;27;20203;-67
2021/04/24 01:30:31;;;;;;;0.97;0.87;;;6.70;59.30;;;;;;5108621;27;20206;-67
2021/04/24 01:32:58;;;;;;;2.80;1.00;;;6.70;59.50;;;;;;5112440;27;20191;-67
2021/04/24 01:35:28;;;;;;;2.67;1.20;;;6.70;60.00;;;;;;5111856;27;20685;-67
2021/04/24 01:37:55;;;;;;;1.83;1.00;;;6.60;60.40;;;;;;5108915;27;20195;-67
2021/04/24 01:40:24;;;;;;;3.67;1.47;;;6.60;60.60;;;;;;5112177;27;20283;-67
2021/04/24 01:42:51;;;;;;;2.13;1.20;;;6.60;61.30;;;;;;5112369;27;20610;-66
2021/04/24 01:45:20;;;;;;;2.37;1.40;;;6.60;62.00;;;;;;5109348;28;20203;-66
2021/04/24 01:47:47;;;;;;;2.33;0.90;;;6.60;62.20;;;;;;5111380;27;20195;-66
2021/04/24 01:50:16;;;;;;;1.73;1.00;;;6.60;62.90;;;;;;5109110;28;20295;-66
2021/04/24 01:52:45;;;;;;;2.67;1.30;;;6.50;63.30;;;;;;5108315;28;20758;-66
2021/04/24 01:55:14;;;;;;;3.67;1.07;;;6.50;63.90;;;;;;5103007;28;20195;-66
2021/04/24 01:57:44;;;;;;;1.50;1.20;;;6.50;64.40;;;;;;5109106;28;20211;-65
2021/04/24 02:00:16;;;;;;;0.80;0.80;;;6.50;65.20;;;;;;5109097;28;20219;-66
2021/04/24 02:02:42;;;;;;;1.40;1.03;;;6.50;65.50;;;;;;5111324;27;20203;-66
2021/04/24 02:05:11;;;;;;;1.40;1.17;;;6.50;66.50;;;;;;5110464;28;20264;-66
2021/04/24 02:07:38;;;;;;;7.67;1.30;;;6.40;67.70;;;;;;5110725;27;20203;-66
2021/04/24 02:10:06;;;;;;;3.30;1.40;;;6.40;68.50;;;;;;5107846;28;20555;-66
2021/04/24 02:12:33;;;;;;;2.63;1.50;;;6.30;69.40;;;;;;5111245;27;20195;-66
2021/04/24 02:15:01;;;;;;;1.37;1.17;;;6.30;70.60;;;;;;5108917;27;20195;-66
2021/04/24 02:17:28;;;;;;;2.73;1.30;;;6.30;71.00;;;;;;5108943;28;20199;-66
2021/04/24 02:19:55;;;;;;;3.27;1.20;;;6.20;71.80;;;;;;5107797;28;20718;-66
2021/04/24 02:22:23;;;;;;;2.73;1.33;;;6.20;73.40;;;;;;5108883;28;20199;-67
2021/04/24 02:24:52;;;;;;;2.83;1.30;;;6.20;73.90;;;;;;5109120;28;20547;-67
2021/04/24 02:27:19;;;;;;;2.40;1.10;;;6.10;74.60;;;;;;5099379;27;20212;-67
2021/04/24 02:29:47;;;;;;;2.00;1.07;;;6.10;75.40;;;;;;5109739;27;20219;-67
2021/04/24 02:32:16;;;;;;;1.30;1.00;;;6.10;76.00;;;;;;5111419;27;20223;-66
2021/04/24 02:34:45;;;;;;;1.13;1.03;;;6.10;76.40;;;;;;5112851;27;20191;-66
2021/04/24 02:37:14;;;;;;;2.83;1.30;;;6.10;77.00;;;;;;5113138;27;20195;-66
2021/04/24 02:39:43;;;;;;;2.90;1.30;;;6.10;77.80;;;;;;5112485;27;20211;-67
2021/04/24 02:42:13;;;;;;;1.33;1.07;;;6.10;79.80;;;;;;5112139;27;20203;-66
2021/04/24 02:44:39;;;;;;;6.43;1.30;;;6.10;79.90;;;;;;5108564;28;20298;-66
2021/04/24 02:47:07;;;;;;;1.20;1.00;;;6.10;80.90;;;;;;5108037;28;20195;-66
2021/04/24 02:49:34;;;;;;;3.40;1.43;;;6.00;81.20;;;;;;5108094;28;20188;-66
2021/04/24 02:52:03;;;;;;;1.53;1.20;;;6.00;81.80;;;;;;5095530;28;20263;-66
2021/04/24 02:54:30;;;;;;;2.57;1.20;;;6.00;83.10;;;;;;5106437;28;20211;-66
2021/04/24 02:56:57;;;;;;;2.60;1.20;;;6.00;84.40;;;;;;5108947;28;20196;-66
2021/04/24 02:59:24;;;;;;;1.67;0.97;;;6.00;85.40;;;;;;5106699;27;20223;-66
2021/04/24 03:01:51;;;;;;;2.43;1.30;;;6.00;86.00;;;;;;5107482;27;20261;-67
2021/04/24 03:04:18;;;;;;;3.00;1.30;;;6.00;87.50;;;;;;5113453;27;20199;-67
2021/04/24 03:06:46;;;;;;;1.60;1.10;;;5.90;88.50;;;;;;5103910;28;20229;-66
2021/04/24 03:09:13;;;;;;;1.83;1.00;;;5.90;89.30;;;;;;5106681;28;20664;-66
2021/04/24 03:11:40;;;;;;;1.37;0.97;;;5.90;89.70;;;;;;5107731;28;20202;-66
2021/04/24 03:14:08;;;;;;;3.40;1.17;;;5.90;90.50;;;;;;5107851;28;20221;-66
2021/04/24 03:16:35;;;;;;;2.53;1.27;;;5.80;91.30;;;;;;5107693;28;20212;-66
2021/04/24 03:19:03;;;;;;;1.03;0.93;;;5.80;91.70;;;;;;5108125;28;20226;-66
2021/04/24 03:21:30;;;;;;;1.13;1.03;;;5.80;92.10;;;;;;5107400;28;20253;-67
2021/04/24 03:23:58;;;;;;;1.40;0.80;;;5.80;92.40;;;;;;5107424;28;20204;-66
2021/04/24 03:26:25;;;;;;;1.23;0.90;;;5.80;92.60;;;;;;5106703;28;20231;-66
2021/04/24 03:28:51;;;;;;;0.90;0.77;;;5.80;92.80;;;;;;5110435;28;20214;-66
2021/04/24 03:31:19;;;;;;;2.70;1.00;;;5.70;93.00;;;;;;5109986;28;20706;-66
2021/04/24 03:33:46;;;;;;;1.97;1.17;;;5.70;93.50;;;;;;5109922;28;20199;-67
2021/04/24 03:36:12;;;;;;;2.50;1.47;;;5.70;94.10;;;;;;5108624;28;20206;-67
2021/04/24 03:38:39;;;;;;;1.80;1.10;;;5.70;94.30;;;;;;5106427;28;20211;-66
2021/04/24 03:41:07;;;;;;;2.33;0.90;;;5.70;95.00;;;;;;5106452;28;20241;-66
2021/04/24 03:43:35;;;;;;;2.53;1.20;;;5.70;95.40;;;;;;5106554;28;20784;-66
2021/04/24 03:46:01;;;;;;;1.77;1.00;;;5.70;95.70;;;;;;5107582;28;20203;-67
2021/04/24 03:48:28;;;;;;;2.67;1.27;;;5.60;95.80;;;;;;5107220;28;20211;-67
2021/04/24 03:50:55;;;;;;;2.13;0.80;;;5.60;96.00;;;;;;5108203;28;20203;-68
2021/04/24 03:53:23;;;;;;;4.67;1.07;;;5.60;96.10;;;;;;5106914;28;20204;-66
2021/04/24 03:55:50;;;;;;;2.83;0.77;;;5.60;96.40;;;;;;5123738;28;20200;-66
2021/04/24 03:58:17;;;;;;;3.23;1.00;;;5.70;96.70;;;;;;5106154;28;20188;-66
2021/04/24 04:00:44;;;;;;;2.27;0.90;;;5.70;96.80;;;;;;5107688;28;20200;-66
2021/04/24 04:03:11;;;;;;;2.73;1.23;;;5.70;96.90;;;;;;5117031;27;20201;-66
2021/04/24 04:05:39;;;;;;;1.80;0.90;;;5.70;97.40;;;;;;5111241;27;20280;-66
2021/04/24 04:08:07;;;;;;;2.10;0.90;;;5.70;97.70;;;;;;5113310;27;20292;-66
2021/04/24 04:10:36;;;;;;;1.30;1.17;;;5.70;97.70;;;;;;5101947;28;20195;-66
2021/04/24 04:13:04;;;;;;;1.70;0.90;;;5.70;98.00;;;;;;5110793;28;20686;-66
2021/04/24 04:15:32;;;;;;;1.07;0.87;;;5.70;98.20;;;;;;5111065;28;20188;-65
2021/04/24 04:18:03;;;;;;;1.53;1.00;;;5.70;98.20;;;;;;5112241;28;20230;-65
2021/04/24 04:20:30;;;;;;;1.40;1.10;;;5.70;98.20;;;;;;5097588;28;20223;-66
2021/04/24 04:22:57;;;;;;;4.27;1.20;;;5.70;98.50;;;;;;5112074;27;20203;-66
2021/04/24 04:25:24;;;;;;;2.00;1.00;;;5.80;98.50;;;;;;5098442;28;20231;-66
2021/04/24 04:27:54;;;;;;;4.13;1.00;;;5.80;98.50;;;;;;5110571;28;20242;-66
2021/04/24 04:30:23;;;;;;;0.73;0.70;;;5.80;98.40;;;;;;5109403;28;20286;-66
2021/04/24 04:32:51;;;;;;;1.03;0.93;;;5.90;98.30;;;;;;5111526;28;20246;-66
2021/04/24 04:35:19;;;;;;;3.00;0.60;;;5.90;98.90;;;;;;5100779;27;20191;-66
2021/04/24 04:37:46;;;;;;;3.53;1.13;;;5.90;98.60;;;;;;5111081;28;20722;-66
2021/04/24 04:40:15;;;;;;;2.37;0.90;;;5.90;98.90;;;;;;5098531;28;20527;-66
2021/04/24 04:42:42;;;;;;;1.67;1.00;;;6.00;98.90;;;;;;5110107;28;20203;-66
2021/04/24 04:45:11;;;;;;;1.77;1.00;;;6.00;98.90;;;;;;5110045;28;20199;-66
2021/04/24 04:47:38;;;;;;;1.17;0.90;;;6.00;99.10;;;;;;5110586;27;20731;-66
2021/04/24 04:50:09;;;;;;;1.50;1.10;;;6.00;99.20;;;;;;5109484;28;20204;-66
2021/04/24 04:52:36;;;;;;;3.43;0.90;;;6.10;99.20;;;;;;5109331;27;20199;-66
2021/04/24 04:55:03;;;;;;;2.63;1.00;;;6.10;99.30;;;;;;5110591;27;20253;-66
2021/04/24 04:57:30;;;;;;;1.60;1.20;;;6.20;99.20;;;;;;5109845;27;20215;-66
2021/04/24 04:59:56;;;;;;;1.40;0.77;;;6.30;99.30;;;;;;5109491;27;20302;-66
2021/04/24 05:02:24;;;;;;;1.10;0.80;;;6.30;99.10;;;;;;5109116;27;20264;-65
2021/04/24 05:04:50;;;;;;;4.10;1.20;;;6.40;99.00;;;;;;5109530;28;20244;-65
2021/04/24 05:07:18;;;;;;;1.37;1.10;;;6.40;98.90;;;;;;5108626;28;20264;-66
2021/04/24 05:09:45;;;;;;;1.73;0.90;;;6.50;98.70;;;;;;5109269;28;20563;-66
2021/04/24 05:12:11;;;;;;;1.93;1.10;;;6.60;98.50;;;;;;5110283;28;20191;-66
2021/04/24 05:14:38;;;;;;;1.50;1.07;;;6.70;98.40;;;;;;5110005;28;20196;-65
2021/04/24 05:17:04;;;;;;;1.03;0.87;;;6.70;98.30;;;;;;5110065;27;20188;-66
2021/04/24 05:19:31;;;;;;;0.90;0.90;;;6.80;98.10;;;;;;5111342;27;20215;-66
2021/04/24 05:21:58;;;;;;;1.37;0.70;;;6.90;98.00;;;;;;5111313;27;20196;-66
2021/04/24 05:24:26;;;;;;;0.83;0.77;;;7.10;98.10;;;;;;5110633;28;20283;-66
2021/04/24 05:26:52;;;;;;;1.57;0.93;;;7.40;97.80;;;;;;5110651;28;20227;-66
2021/04/24 05:29:20;;;;;;;1.43;0.83;;;7.40;97.10;;;;;;5098571;28;20196;-67
2021/04/24 05:31:46;;;;;;;1.17;0.77;;;7.70;96.60;;;;;;5114047;27;20278;-67
2021/04/24 05:34:13;;;;;;;1.00;0.90;;;7.90;96.20;;;;;;5109132;28;20196;-66
2021/04/24 05:36:40;;;;;;;1.10;1.00;;;8.00;96.10;;;;;;5108000;27;20197;-66
2021/04/24 05:39:08;;;;;;;1.77;0.97;;;8.40;95.90;;;;;;5104931;27;20216;-66
2021/04/24 05:41:36;;;;;;;3.30;1.00;;;8.80;95.00;;;;;;5108622;28;20215;-66
2021/04/24 05:44:03;;;;;;;2.40;1.10;;;9.20;93.80;;;;;;5108281;28;20200;-66
2021/04/24 05:46:30;;;;;;;0.73;0.73;;;9.70;92.30;;;;;;5096045;28;20673;-66
2021/04/24 05:48:57;;;;;;;3.57;1.20;;;10.30;90.30;;;;;;5110073;28;20261;-66
2021/04/24 05:51:24;;;;;;;1.60;1.10;;;10.80;87.00;;;;;;5110967;27;20231;-66
2021/04/24 05:53:54;;;;;;;3.47;1.00;;;11.10;84.30;;;;;;5111908;27;20192;-66
2021/04/24 05:56:22;;;;;;;1.30;1.00;;;11.40;81.90;;;;;;5112916;27;20199;-66
2021/04/24 05:58:50;;;;;;;1.23;1.00;;;12.20;79.20;;;;;;5108121;28;20223;-65
2021/04/24 06:01:18;;;;;;;1.07;0.90;;;13.30;74.40;;;;;;5106797;28;20314;-67
2021/04/24 06:03:44;;;;;;;1.67;0.90;;;14.70;69.20;;;;;;5120345;27;20198;-67
2021/04/24 06:06:11;;;;;;;1.17;0.80;;;15.90;63.80;;;;;;5109804;28;20206;-67
2021/04/24 06:08:38;;;;;;;2.10;1.17;;;16.80;60.20;;;;;;5105169;28;20202;-67
2021/04/24 06:11:05;;;;;;;4.33;1.30;;;17.60;57.40;;;;;;5099850;27;20252;-67
2021/04/24 06:13:32;;;;;;;1.10;1.00;;;17.80;55.70;;;;;;5110437;27;20196;-67
2021/04/24 06:15:59;;;;;;;1.10;0.90;;;18.50;54.60;;;;;;5109122;28;20214;-67
2021/04/24 06:18:26;;;;;;;2.20;1.20;;;19.50;53.00;;;;;;5109932;28;20197;-67
2021/04/24 06:20:55;;;;;;;1.07;0.90;;;20.00;50.70;;;;;;5109986;28;20232;-67
2021/04/24 06:23:22;;;;;;;0.80;0.80;;;19.70;49.70;;;;;;5107925;28;20202;-67
2021/04/24 06:25:49;;;;;;;1.67;0.70;;;20.20;49.60;;;;;;5109088;28;20283;-67
2021/04/24 06:28:16;;;;;;;1.00;0.90;;;21.20;48.20;;;;;;5106305;28;20204;-67
2021/04/24 06:30:42;;;;;;;1.63;1.00;;;22.20;46.40;;;;;;5106938;28;20283;-68
2021/04/24 06:33:10;;;;;;;1.00;1.00;;;23.20;44.70;;;;;;5108287;28;20207;-67
2021/04/24 06:35:37;;;;;;;0.80;0.70;;;24.10;43.30;;;;;;5109475;28;20209;-67
2021/04/24 06:38:04;;;;;;;0.80;0.80;;;24.50;42.10;;;;;;5109124;28;20414;-67
2021/04/24 06:40:30;;;;;;;1.42;0.80;;;23.80;41.40;;;;;;5108201;27;20223;-67
2021/04/24 06:42:57;;;;;;;1.02;0.80;;;23.00;41.10;;;;;;5107292;27;20249;-67
2021/04/24 06:45:24;;;;;;;0.90;0.70;;;22.10;41.20;;;;;;5110608;27;20242;-67
2021/04/24 06:47:51;;;;;;;0.97;0.90;;;21.30;41.40;;;;;;5118761;27;20199;-67
2021/04/24 06:50:19;;;;;;;0.80;0.80;;;21.20;41.40;;;;;;5108331;28;20203;-67
2021/04/24 06:52:46;;;;;;;0.70;0.70;;;22.10;40.70;;;;;;5107258;27;20202;-67
2021/04/24 06:55:17;;;;;;;0.70;0.70;;;22.80;39.50;;;;;;5113095;27;20343;-67
2021/04/24 06:57:44;;;;;;;0.93;0.70;;;22.50;38.40;;;;;;5111879;27;20369;-67
2021/04/24 07:00:11;;;;;;;0.85;0.80;;;21.90;38.10;;;;;;5107239;27;20576;-66
2021/04/24 07:02:38;;;;;;;0.50;0.50;;;21.10;37.80;;;;;;5113116;27;20254;-67
2021/04/24 07:05:08;;;;;;;0.70;0.70;;;20.40;38.00;;;;;;5113834;27;20308;-67
2021/04/24 07:07:35;;;;;;;0.60;0.60;;;20.60;38.00;;;;;;5108498;28;20342;-67
2021/04/24 07:10:03;;;;;;;0.98;0.68;;;20.70;37.60;;;;;;5103206;28;20190;-67
2021/04/24 07:12:30;;;;;;;0.80;0.80;;;20.30;37.30;;;;;;5108365;28;20197;-67
2021/04/24 07:14:57;;;;;;;1.33;1.00;;;20.00;37.50;;;;;;5107518;28;20686;-67
2021/04/24 07:17:23;;;;;;;0.90;0.90;;;19.80;37.50;;;;;;5109374;28;20208;-67
2021/04/24 07:19:50;;;;;;;1.70;1.17;;;19.50;37.30;;;;;;5109387;27;20217;-66
2021/04/24 07:22:17;;;;;;;0.90;0.90;;;19.60;37.30;;;;;;5109636;27;20554;-68
2021/04/24 07:24:46;;;;;;;0.90;0.90;;;20.20;37.40;;;;;;5109553;28;20280;-66
2021/04/24 07:27:13;;;;;;;0.85;0.85;;;21.00;37.50;;;;;;5109397;28;20214;-65
2021/04/24 07:29:40;;;;;;;1.38;1.13;;;21.70;37.10;;;;;;5106279;28;20195;-66
2021/04/24 07:32:07;;;;;;;1.17;0.95;;;22.50;36.50;;;;;;5107997;28;20192;-66
2021/04/24 07:34:34;;;;;;;1.17;1.10;;;22.90;35.60;;;;;;5109127;28;20571;-67
2021/04/24 07:37:01;;;;;;;1.15;1.02;;;23.70;35.30;;;;;;5106367;28;20200;-67
2021/04/24 07:39:28;;;;;;;1.42;0.90;;;23.90;34.30;;;;;;5108427;28;20216;-67
2021/04/24 07:41:56;;;;;;;1.05;0.93;;;23.70;34.00;;;;;;5113373;27;20213;-67
2021/04/24 07:44:24;;;;;;;1.33;1.15;;;24.40;33.70;;;;;;5114459;27;20204;-67
2021/04/24 07:46:51;;;;;;;0.90;0.90;;;25.20;32.90;;;;;;5112983;27;20200;-67
2021/04/24 07:49:18;;;;;;;1.05;0.95;;;26.10;32.40;;;;;;5114093;27;20241;-68
2021/04/24 07:51:45;;;;;;;0.70;0.70;;;26.70;31.40;;;;;;5117487;27;20236;-67
2021/04/24 07:54:13;;;;;;;0.95;0.95;;;26.70;30.20;;;;;;5111048;28;20225;-67
2021/04/24 07:56:41;;;;;;;2.15;0.80;;;25.80;30.00;;;;;;5112279;28;20204;-67
2021/04/24 07:59:09;;;;;;;0.73;0.73;;;24.90;28.90;;;;;;5112187;28;20729;-67
2021/04/24 08:01:37;;;;;;;0.98;0.90;;;23.60;28.40;;;;;;5102458;27;20199;-65
2021/04/24 08:04:05;;;;;;;2.05;0.70;;;22.30;28.60;;;;;;5104313;27;20302;-66
2021/04/24 08:06:32;;;;;;;0.80;0.77;;;21.20;29.40;;;;;;5102266;27;20647;-66
2021/04/24 08:08:58;;;;;;;0.57;0.52;;;20.60;30.00;;;;;;5110301;27;20187;-67
2021/04/24 08:11:25;;;;;;;0.95;0.80;;;20.50;30.00;;;;;;5113449;27;20192;-67
2021/04/24 08:13:52;;;;;;;0.50;0.50;;;21.90;30.20;;;;;;5112532;27;20659;-67
2021/04/24 08:16:20;;;;;;;1.00;0.82;;;24.20;29.50;;;;;;5110044;27;20769;-67
2021/04/24 08:18:47;;;;;;;0.70;0.70;;;26.40;28.00;;;;;;5111511;27;20184;-66
2021/04/24 08:21:15;;;;;;;1.00;0.90;;;27.50;27.60;;;;;;5114531;27;20202;-66
2021/04/24 08:23:41;;;;;;;0.80;0.80;;;28.10;27.10;;;;;;5108205;27;20191;-66
2021/04/24 08:26:08;;;;;;;0.70;0.70;;;29.40;26.90;;;;;;5112854;27;20710;-65
2021/04/24 08:28:35;;;;;;;0.80;0.80;;;30.90;26.00;;;;;;5110747;27;20812;-67
2021/04/24 08:31:01;;;;;;;0.68;0.68;;;30.70;25.00;;;;;;5111801;27;20195;-66
2021/04/24 08:33:29;;;;;;;0.90;0.90;;;29.70;25.00;;;;;;5111932;27;20195;-67
2021/04/24 08:35:58;;;;;;;0.70;0.70;;;28.60;25.40;;;;;;5111422;27;20188;-67
2021/04/24 08:38:26;;;;;;;1.05;0.90;;;27.50;25.80;;;;;;5114314;27;20235;-66
2021/04/24 08:40:53;;;;;;;0.80;0.80;;;26.40;25.80;;;;;;5109179;28;20215;-67
2021/04/24 08:43:20;;;;;;;1.17;0.90;;;26.10;26.00;;;;;;5108172;27;20574;-66
2021/04/24 08:45:47;;;;;;;0.80;0.80;;;27.40;25.70;;;;;;5126123;27;20295;-66
2021/04/24 08:48:14;;;;;;;1.10;1.10;;;29.60;25.30;;;;;;5112967;27;20192;-66
2021/04/24 08:50:42;;;;;;;0.80;0.80;;;32.20;24.20;;;;;;5112871;27;20249;-66
2021/04/24 08:53:08;;;;;;;1.10;1.10;;;33.00;23.20;;;;;;5111632;27;20674;-66
2021/04/24 08:55:38;;;;;;;1.05;1.05;;;32.80;23.10;;;;;;5112210;27;20746;-66
2021/04/24 08:58:06;;;;;;;1.52;1.00;;;34.30;22.60;;;;;;5112064;27;20196;-67
2021/04/24 09:00:37;;;;;;;1.20;0.93;;;35.30;21.10;;;;;;5103943;28;20758;-66
2021/04/24 09:03:05;;;;;;;1.20;1.20;;;34.60;19.60;;;;;;5123187;27;20196;-66
2021/04/24 09:05:32;;;;;;;1.98;1.10;;;32.20;20.10;;;;;;5113815;27;20313;-66
2021/04/24 09:08:02;;;;;;;1.20;1.10;;;30.00;20.70;;;;;;5110316;27;20690;-67
2021/04/24 09:10:34;;;;;;;1.00;0.85;;;27.90;21.60;;;;;;5115112;27;20200;-67
2021/04/24 09:13:00;;;;;;;0.70;0.70;;;27.20;22.60;;;;;;5110363;28;20188;-66
2021/04/24 09:15:28;;;;;;;0.90;0.90;;;26.50;23.00;;;;;;5100321;28;20196;-67
2021/04/24 09:17:58;;;;;;;1.00;0.80;;;25.20;23.30;;;;;;5110367;27;20204;-66
2021/04/24 09:20:27;;;;;;;1.05;0.90;;;23.60;23.90;;;;;;5103270;28;20226;-66
2021/04/24 09:23:05;;;;;;;1.45;1.10;;;22.20;24.70;;;;;;5110419;28;20196;-67
2021/04/24 09:25:44;;;;;;;1.02;0.93;;;21.00;25.50;;;;;;5104499;27;20239;-67
2021/04/24 09:28:13;;;;;;;1.05;0.93;;;20.70;26.20;;;;;;5121250;27;20215;-67
2021/04/24 09:30:41;;;;;;;1.25;1.15;;;22.80;26.10;;;;;;5120221;27;20214;-66
2021/04/24 09:33:12;;;;;;;1.05;1.05;;;24.70;24.80;;;;;;5121618;27;20200;-67
2021/04/24 09:35:41;;;;;;;1.30;0.85;;;26.60;24.30;;;;;;5121756;27;20286;-67
2021/04/24 09:38:09;;;;;;;1.20;1.00;;;27.80;23.20;;;;;;5108112;27;20442;-67
2021/04/24 09:40:37;;;;;;;3.22;0.60;;;26.80;22.70;;;;;;5112336;27;20665;-67
2021/04/24 09:43:06;;;;;;;0.50;0.50;;;25.40;22.50;;;;;;5111116;27;20187;-67
2021/04/24 09:45:38;;;;;;;0.50;0.50;;;23.60;21.90;;;;;;5108582;28;20194;-66
2021/04/24 09:48:18;;;;;;;0.65;0.50;;;22.10;22.00;;;;;;5110187;27;20196;-66
2021/04/24 09:50:44;;;;;;;0.47;0.47;;;20.80;22.30;;;;;;5110552;27;20199;-67
2021/04/24 09:53:17;;;;;;;0.98;0.50;;;20.10;22.70;;;;;;5105609;27;20199;-67
2021/04/24 09:55:45;;;;;;;0.43;0.43;;;19.50;23.00;;;;;;5110118;27;20240;-66
2021/04/24 09:58:26;;;;;;;0.50;0.50;;;19.50;23.20;;;;;;5109922;28;20200;-67
2021/04/24 10:00:56;;;;;;;0.93;0.63;;;19.70;23.50;;;;;;5112895;27;20292;-68
2021/04/24 10:03:39;;;;;;;1.95;0.50;;;20.50;23.30;;;;;;5106676;28;20210;-67
2021/04/24 10:06:29;;;;;;;1.63;0.55;;;20.50;23.20;;;;;;5113248;27;20194;-67
2021/04/24 10:09:18;;;;;;;0.50;0.50;;;19.90;22.70;;;;;;5103026;28;20222;-67
2021/04/24 10:11:47;;;;;;;0.43;0.43;;;19.40;23.20;;;;;;5107983;28;20618;-66
2021/04/24 10:14:26;;;;;;;0.70;0.70;;;19.80;23.40;;;;;;5112856;27;20239;-66
2021/04/24 10:16:53;;;;;;;0.52;0.52;;;19.90;23.20;;;;;;5102198;27;20236;-65
2021/04/24 10:19:20;;;;;;;0.52;0.30;;;19.40;23.10;;;;;;5100386;27;20238;-66
2021/04/24 10:21:46;;;;;;;0.60;0.60;;;19.10;23.20;;;;;;5100522;28;20206;-66
2021/04/24 10:24:14;;;;;;;0.43;0.43;;;18.90;23.40;;;;;;5104504;27;20565;-67
2021/04/24 10:26:44;;;;;;;0.50;0.50;;;19.20;23.40;;;;;;5105036;27;20250;-67
2021/04/24 10:29:10;;;;;;;0.60;0.57;;;18.80;23.10;;;;;;5108574;27;20682;-67
2021/04/24 10:31:38;;;;;;;0.70;0.70;;;18.10;23.60;;;;;;5097747;27;20950;-67
2021/04/24 10:34:06;;;;;;;0.60;0.60;;;19.20;24.20;;;;;;5097549;27;20338;-67
2021/04/24 10:36:34;;;;;;;0.50;0.50;;;20.10;23.90;;;;;;5102174;27;20446;-68
2021/04/24 10:39:03;;;;;;;0.85;0.85;;;20.60;22.50;;;;;;5104468;27;20716;-67
2021/04/24 10:41:35;;;;;;;2.13;0.50;;;20.80;23.00;;;;;;5098486;28;20203;-66
2021/04/24 10:44:05;;;;;;;0.60;0.60;;;22.70;22.80;;;;;;5103952;27;20332;-66
2021/04/24 10:46:34;;;;;;;0.70;0.70;;;24.70;22.20;;;;;;5103228;27;20237;-66
2021/04/24 10:49:23;;;;;;;0.77;0.65;;;26.50;21.60;;;;;;5106132;28;20414;-66
2021/04/24 10:52:18;;;;;;;0.60;0.60;;;26.70;21.30;;;;;;5104383;28;20279;-66
2021/04/24 10:55:22;;;;;;;0.70;0.70;;;27.50;20.80;;;;;;5104734;27;20839;-66
2021/04/24 10:57:52;;;;;;;0.80;0.80;;;27.80;20.30;;;;;;5101084;27;20203;-67
2021/04/24 11:00:21;;;;;;;0.70;0.70;;;29.30;19.90;;;;;;5097427;28;20446;-66
2021/04/24 11:02:48;;;;;;;0.68;0.68;;;30.20;19.30;;;;;;5104649;27;20207;-67
2021/04/24 11:05:25;;;;;;;0.60;0.60;;;31.20;19.30;;;;;;5106124;28;20196;-66
2021/04/24 11:08:23;;;;;;;0.52;0.52;;;30.60;18.80;;;;;;5104601;28;20303;-67
2021/04/24 11:10:57;;;;;;;2.67;0.80;;;28.50;18.20;;;;;;5103810;28;20198;-66
2021/04/24 11:13:27;;;;;;;0.60;0.50;;;26.80;18.40;;;;;;5104370;28;20214;-66
2021/04/24 11:15:55;;;;;;;8.07;2.25;;;26.20;18.60;;;;;;5108356;27;20207;-66
2021/04/24 11:18:23;;;;;;;1.95;1.10;;;25.10;18.90;;;;;;5106328;28;20698;-66
2021/04/24 11:20:55;;;;;;;1.67;1.00;;;24.30;19.10;;;;;;5105992;28;20430;-67
2021/04/24 11:23:54;;;;;;;22.92;3.85;;;23.20;18.90;;;;;;5105330;28;20203;-67
2021/04/24 11:26:23;;;;;;;0.50;0.50;;;22.80;19.50;;;;;;5105350;27;20288;-65
2021/04/24 11:29:09;;;;;;;0.50;0.50;;;22.40;19.90;;;;;;5104635;28;20624;-68
2021/04/24 11:31:54;;;;;;;0.80;0.80;;;22.30;20.10;;;;;;5103595;28;20199;-68
2021/04/24 11:34:39;;;;;;;0.52;0.52;;;23.20;20.20;;;;;;5119302;27;20441;-66
2021/04/24 11:37:35;;;;;;;1.73;0.70;;;24.30;20.50;;;;;;5099969;28;20439;-67
2021/04/24 11:40:25;;;;;;;0.50;0.50;;;24.50;19.60;;;;;;5101895;28;20239;-66
2021/04/24 11:42:55;;;;;;;2.72;0.90;;;24.50;19.30;;;;;;5105953;28;20204;-67
2021/04/24 11:45:57;;;;;;;1.48;1.13;;;23.50;19.00;;;;;;5102514;28;20199;-67
2021/04/24 11:49:05;;;;;;;0.40;0.40;;;22.40;19.40;;;;;;5105568;28;20202;-69
2021/04/24 11:51:40;;;;;;;0.60;0.60;;;22.30;19.70;;;;;;5106081;28;20284;-69
2021/04/24 11:54:09;;;;;;;0.65;0.65;;;22.10;19.40;;;;;;5103034;28;20470;-67
2021/04/24 11:56:36;;;;;;;0.60;0.60;;;22.00;19.60;;;;;;5103663;28;20902;-68
2021/04/24 11:59:04;;;;;;;0.60;0.60;;;21.90;19.50;;;;;;5104194;28;20188;-68
2021/04/24 12:01:31;;;;;;;1.80;0.70;;;21.60;19.50;;;;;;5103276;28;20260;-67
2021/04/24 12:03:58;;;;;;;0.60;0.60;;;21.60;19.40;;;;;;5100501;28;20898;-69
2021/04/24 12:06:39;;;;;;;0.60;0.60;;;21.60;19.40;;;;;;5103648;28;20626;-69
2021/04/24 12:09:11;;;;;;;1.05;0.60;;;21.50;19.20;;;;;;5101952;28;20185;-68
2021/04/24 12:11:38;;;;;;;0.82;0.50;;;21.00;19.10;;;;;;5102421;28;21079;-69
2021/04/24 12:14:05;;;;;;;1.10;0.80;;;20.40;19.30;;;;;;5105131;28;20188;-69
2021/04/24 12:16:44;;;;;;;0.60;0.60;;;19.60;19.50;;;;;;5119916;27;20245;-69
2021/04/24 12:19:27;;;;;;;2.25;1.00;;;19.00;19.90;;;;;;5105953;28;20190;-68
2021/04/24 12:22:21;;;;;;;0.50;0.50;;;18.30;20.00;;;;;;5104539;28;20193;-69
2021/04/24 12:24:57;;;;;;;0.60;0.60;;;17.80;20.60;;;;;;5092965;28;20223;-69
2021/04/24 12:27:27;;;;;;;0.73;0.73;;;17.30;21.00;;;;;;5106489;28;20200;-69
2021/04/24 12:29:55;;;;;;;1.20;0.80;;;17.20;21.40;;;;;;5106523;28;20959;-70
2021/04/24 12:32:25;;;;;;;0.87;0.83;;;17.20;21.40;;;;;;5107615;27;20192;-68
2021/04/24 12:34:54;;;;;;;2.33;1.20;;;16.90;20.90;;;;;;5108040;28;20632;-68
2021/04/24 12:37:23;;;;;;;0.63;0.50;;;16.60;21.40;;;;;;5109123;27;20842;-68
2021/04/24 12:40:09;;;;;;;0.53;0.53;;;16.40;21.40;;;;;;5105927;27;20222;-67
2021/04/24 12:42:36;;;;;;;0.53;0.43;;;16.00;21.20;;;;;;5107139;28;20203;-68
2021/04/24 12:45:17;;;;;;;0.67;0.67;;;15.70;21.50;;;;;;5107949;27;20196;-67
2021/04/24 12:47:47;;;;;;;2.13;0.73;;;15.50;21.90;;;;;;5108080;27;20750;-68
2021/04/24 12:50:19;;;;;;;0.60;0.60;;;15.40;22.60;;;;;;5108092;27;20192;-68
2021/04/24 12:52:50;;;;;;;0.70;0.70;;;15.30;22.40;;;;;;5110104;27;20191;-68
2021/04/24 12:55:17;;;;;;;0.67;0.67;;;15.30;22.10;;;;;;5106768;28;20199;-67
2021/04/24 12:57:56;;;;;;;3.10;0.70;;;15.30;22.10;;;;;;5107582;27;20207;-67
2021/04/24 13:00:29;;;;;;;0.60;0.60;;;15.30;22.20;;;;;;5106250;27;20238;-68
2021/04/24 13:02:57;;;;;;;0.40;0.40;;;15.30;22.30;;;;;;5103925;27;20256;-67